createdAt,value
2017-11-14T00:00:00.737Z,25.00
2017-11-14T00:02:28.263Z,23.50
2017-11-14T00:04:55.764Z,18.30
2017-11-14T00:07:23.291Z,17.53
2017-11-14T00:09:50.801Z,17.37
2017-11-14T00:12:19.089Z,21.23
2017-11-14T00:14:46.605Z,25.73
2017-11-14T00:17:14.134Z,21.03
2017-11-14T00:19:41.651Z,19.50
2017-11-14T00:22:09.940Z,26.07
2017-11-14T00:24:37.448Z,19.73
2017-11-14T00:27:04.976Z,20.20
2017-11-14T00:29:32.529Z,19.93
2017-11-14T00:32:00.061Z,20.93
2017-11-14T00:34:28.340Z,21.63
2017-11-14T00:36:55.848Z,21.00
2017-11-14T00:39:23.372Z,22.77
2017-11-14T00:41:50.884Z,16.50
2017-11-14T00:44:18.427Z,25.07
2017-11-14T00:46:45.931Z,21.30
2017-11-14T00:49:13.461Z,24.30
2017-11-14T00:51:40.965Z,18.00
2017-11-14T00:54:08.489Z,19.47
2017-11-14T00:56:36.760Z,25.53
2017-11-14T00:59:05.053Z,25.03
2017-11-14T01:01:33.327Z,21.20
2017-11-14T01:04:01.617Z,24.90
2017-11-14T01:06:29.133Z,23.47
2017-11-14T01:08:56.660Z,22.30
2017-11-14T01:11:24.171Z,18.27
2017-11-14T01:13:52.484Z,21.30
2017-11-14T01:16:20.004Z,19.37
2017-11-14T01:18:48.295Z,18.03
2017-11-14T01:21:15.805Z,21.23
2017-11-14T01:23:43.328Z,20.97
2017-11-14T01:26:10.831Z,17.47
2017-11-14T01:28:38.376Z,17.83
2017-11-14T01:31:06.653Z,20.37
2017-11-14T01:33:34.180Z,21.00
2017-11-14T01:36:01.705Z,19.43
2017-11-14T01:38:29.976Z,18.97
2017-11-14T01:40:58.264Z,19.53
2017-11-14T01:43:26.527Z,22.30
2017-11-14T01:45:54.817Z,22.43
2017-11-14T01:48:23.083Z,23.87
2017-11-14T01:50:51.372Z,25.10
2017-11-14T01:53:18.881Z,25.53
2017-11-14T01:55:47.172Z,23.93
2017-11-14T01:58:15.460Z,21.70
2017-11-14T02:00:47.936Z,23.83
2017-11-14T02:03:16.213Z,23.87
2017-11-14T02:05:44.503Z,27.23
2017-11-14T02:08:12.776Z,26.17
2017-11-14T02:10:41.116Z,22.40
2017-11-14T02:13:08.628Z,19.50
2017-11-14T02:15:36.152Z,17.43
2017-11-14T02:18:03.667Z,21.03
2017-11-14T02:20:31.188Z,19.67
2017-11-14T02:22:59.460Z,19.30
2017-11-14T02:25:27.748Z,19.07
2017-11-14T02:27:55.261Z,22.17
2017-11-14T02:30:22.800Z,21.83
2017-11-14T02:32:50.312Z,28.00
2017-11-14T02:35:18.604Z,20.77
2017-11-14T02:37:46.111Z,17.63
2017-11-14T02:40:13.638Z,22.80
2017-11-14T02:42:41.166Z,20.97
2017-11-14T02:45:09.440Z,22.00
2017-11-14T02:47:37.729Z,19.83
2017-11-14T02:50:05.237Z,25.20
2017-11-14T02:52:32.763Z,21.40
2017-11-14T02:55:00.272Z,19.80
2017-11-14T02:57:27.793Z,19.20
2017-11-14T02:59:55.307Z,20.33
2017-11-14T03:02:22.840Z,18.53
2017-11-14T03:04:50.348Z,22.60
2017-11-14T03:07:17.871Z,23.47
2017-11-14T03:09:46.144Z,22.23
2017-11-14T03:12:14.436Z,18.53
2017-11-14T03:14:41.943Z,21.90
2017-11-14T03:17:10.232Z,20.60
2017-11-14T03:19:37.743Z,19.37
2017-11-14T03:22:05.288Z,19.43
2017-11-14T03:24:32.797Z,18.80
2017-11-14T03:27:00.313Z,18.40
2017-11-14T03:29:27.829Z,21.10
2017-11-14T03:31:55.354Z,19.37
2017-11-14T03:34:22.861Z,20.67
2017-11-14T03:36:51.132Z,25.10
2017-11-14T03:39:19.421Z,22.47
2017-11-14T03:41:47.701Z,23.30
2017-11-14T03:44:15.988Z,24.83
2017-11-14T03:46:43.501Z,22.17
2017-11-14T03:49:11.033Z,25.53
2017-11-14T03:51:38.577Z,22.33
2017-11-14T03:54:06.105Z,25.43
2017-11-14T03:56:34.372Z,27.10
2017-11-14T03:59:02.664Z,25.70
2017-11-14T04:01:30.936Z,28.50
2017-11-14T04:03:59.230Z,33.40
2017-11-14T04:06:26.750Z,28.77
2017-11-14T04:08:55.053Z,30.63
2017-11-14T04:11:22.565Z,23.07
2017-11-14T04:13:50.088Z,26.67
2017-11-14T04:16:17.592Z,20.50
2017-11-14T04:18:45.120Z,19.37
2017-11-14T04:21:12.635Z,20.37
2017-11-14T04:23:40.924Z,20.53
2017-11-14T04:26:08.428Z,21.10
2017-11-14T04:28:35.932Z,26.53
2017-11-14T04:31:03.457Z,20.47
2017-11-14T04:33:30.966Z,18.83
2017-11-14T04:35:58.500Z,27.13
2017-11-14T04:38:26.768Z,17.87
2017-11-14T04:40:55.080Z,21.07
2017-11-14T04:43:22.592Z,24.40
2017-11-14T04:45:50.111Z,21.17
2017-11-14T04:48:17.615Z,17.93
2017-11-14T04:50:45.905Z,20.33
2017-11-14T04:53:14.178Z,21.30
2017-11-14T04:55:42.472Z,21.43
2017-11-14T04:58:10.045Z,19.17
2017-11-14T05:00:37.572Z,17.13
2017-11-14T05:03:05.845Z,19.50
2017-11-14T05:05:34.140Z,16.40
2017-11-14T05:08:01.668Z,19.77
2017-11-14T05:10:29.960Z,17.10
2017-11-14T05:12:58.232Z,21.93
2017-11-14T05:15:26.520Z,21.73
2017-11-14T05:17:54.024Z,24.10
2017-11-14T05:20:22.299Z,26.30
2017-11-14T05:22:49.829Z,23.53
2017-11-14T05:25:17.359Z,23.73
2017-11-14T05:27:44.896Z,27.47
2017-11-14T05:30:12.405Z,28.30
2017-11-14T05:32:39.937Z,20.67
2017-11-14T05:35:07.460Z,23.53
2017-11-14T05:37:34.987Z,27.90
2017-11-14T05:40:02.503Z,22.83
2017-11-14T05:42:30.793Z,23.37
2017-11-14T05:44:58.330Z,21.57
2017-11-14T05:47:26.624Z,18.30
2017-11-14T05:49:54.893Z,21.00
2017-11-14T05:52:23.168Z,19.33
2017-11-14T05:54:51.456Z,18.77
2017-11-14T05:57:18.964Z,20.40
2017-11-14T05:59:46.488Z,21.63
2017-11-14T06:02:14.000Z,18.80
2017-11-14T06:04:41.526Z,19.03
2017-11-14T06:07:09.800Z,19.17
2017-11-14T06:09:37.323Z,21.70
2017-11-14T06:12:04.888Z,22.50
2017-11-14T06:14:32.458Z,17.93
2017-11-14T06:17:00.001Z,18.33
2017-11-14T06:19:27.524Z,17.40
2017-11-14T06:21:55.030Z,15.57
2017-11-14T06:24:22.694Z,18.77
2017-11-14T06:26:50.200Z,15.73
2017-11-14T06:29:17.705Z,14.27
2017-11-14T06:31:45.228Z,15.80
2017-11-14T06:34:13.498Z,15.47
2017-11-14T06:36:41.791Z,17.27
2017-11-14T06:39:10.066Z,16.63
2017-11-14T06:41:37.605Z,15.57
2017-11-14T06:44:05.112Z,17.27
2017-11-14T06:46:32.637Z,17.67
2017-11-14T06:49:00.909Z,20.50
2017-11-14T06:51:29.200Z,18.63
2017-11-14T06:53:56.712Z,17.90
2017-11-14T06:56:24.236Z,21.57
2017-11-14T06:58:51.748Z,20.43
2017-11-14T07:01:19.285Z,19.20
2017-11-14T07:03:46.795Z,17.53
2017-11-14T07:06:14.330Z,16.30
2017-11-14T07:08:42.600Z,16.67
2017-11-14T07:11:10.125Z,17.07
2017-11-14T07:13:37.633Z,20.07
2017-11-14T07:16:05.933Z,18.53
2017-11-14T07:18:33.441Z,15.47
2017-11-14T07:21:00.969Z,19.30
2017-11-14T07:23:28.480Z,24.47
2017-11-14T07:25:56.774Z,18.80
2017-11-14T07:28:24.336Z,20.67
2017-11-14T07:30:51.876Z,22.20
2017-11-14T07:33:20.148Z,16.00
2017-11-14T07:35:48.454Z,19.03
2017-11-14T07:38:16.016Z,17.80
2017-11-14T07:40:44.077Z,19.00
2017-11-14T07:43:11.600Z,19.70
2017-11-14T07:45:39.111Z,19.93
2017-11-14T07:48:06.652Z,16.67
2017-11-14T07:50:34.213Z,16.83
2017-11-14T07:53:01.743Z,20.50
2017-11-14T07:55:30.061Z,16.13
2017-11-14T07:57:57.598Z,19.60
2017-11-14T08:00:25.103Z,18.60
2017-11-14T08:02:52.745Z,17.17
2017-11-14T08:05:20.253Z,20.07
2017-11-14T08:07:48.547Z,17.83
2017-11-14T08:10:16.052Z,21.33
2017-11-14T08:12:43.668Z,18.70
2017-11-14T08:15:11.578Z,22.33
2017-11-14T08:17:39.119Z,22.07
2017-11-14T08:20:06.640Z,19.27
2017-11-14T08:22:34.148Z,17.37
2017-11-14T08:25:01.674Z,19.00
2017-11-14T08:27:29.224Z,16.53
2017-11-14T08:29:56.789Z,17.53
2017-11-14T08:32:24.349Z,15.43
2017-11-14T08:34:51.899Z,18.07
2017-11-14T08:37:19.436Z,20.10
2017-11-14T08:39:47.731Z,20.97
2017-11-14T08:42:16.124Z,19.07
2017-11-14T08:44:43.671Z,18.63
2017-11-14T08:47:11.184Z,23.20
2017-11-14T08:49:38.708Z,19.37
2017-11-14T08:52:06.265Z,14.50
2017-11-14T08:54:33.812Z,17.00
2017-11-14T08:57:01.317Z,20.10
2017-11-14T08:59:28.923Z,20.33
2017-11-14T09:01:56.437Z,19.80
2017-11-14T09:04:23.943Z,21.30
2017-11-14T09:06:51.504Z,18.27
2017-11-14T09:09:19.003Z,18.97
2017-11-14T09:11:46.629Z,21.30
2017-11-14T09:14:14.137Z,18.17
2017-11-14T09:16:41.731Z,21.37
2017-11-14T09:19:09.304Z,19.03
2017-11-14T09:21:36.828Z,23.00
2017-11-14T09:24:05.132Z,18.27
2017-11-14T09:26:32.697Z,18.00
2017-11-14T09:29:00.253Z,18.50
2017-11-14T09:31:27.784Z,16.30
2017-11-14T09:33:56.052Z,16.57
2017-11-14T09:36:23.645Z,25.00
2017-11-14T09:38:51.205Z,16.60
2017-11-14T09:41:18.771Z,23.00
2017-11-14T09:43:46.317Z,22.80
2017-11-14T09:46:13.841Z,20.70
2017-11-14T09:48:42.112Z,19.17
2017-11-14T09:51:10.537Z,19.40
2017-11-14T09:53:38.049Z,21.37
2017-11-14T09:56:05.571Z,15.80
2017-11-14T09:58:33.107Z,18.40
2017-11-14T10:01:00.672Z,15.80
2017-11-14T10:03:28.228Z,16.40
2017-11-14T10:05:55.824Z,17.23
2017-11-14T10:08:23.331Z,17.73
2017-11-14T10:10:51.603Z,16.60
2017-11-14T10:13:20.001Z,13.70
2017-11-14T10:15:47.556Z,16.10
2017-11-14T10:18:15.116Z,18.57
2017-11-14T10:20:42.625Z,17.53
2017-11-14T10:23:10.948Z,15.93
2017-11-14T10:25:38.461Z,15.87
2017-11-14T10:28:06.157Z,15.10
2017-11-14T10:30:34.420Z,15.30
2017-11-14T10:33:02.708Z,20.30
2017-11-14T10:35:31.053Z,15.20
2017-11-14T10:38:00.091Z,13.23
2017-11-14T10:40:27.597Z,12.80
2017-11-14T10:42:55.116Z,11.70
2017-11-14T10:45:22.678Z,14.67
2017-11-14T10:47:50.227Z,11.43
2017-11-14T10:50:17.788Z,12.63
2017-11-14T10:52:45.316Z,13.23
2017-11-14T10:55:13.592Z,12.03
2017-11-14T10:57:41.904Z,13.53
2017-11-14T11:00:09.399Z,11.70
2017-11-14T11:02:36.919Z,12.73
2017-11-14T11:05:04.880Z,13.80
2017-11-14T11:07:32.399Z,12.77
2017-11-14T11:09:59.905Z,14.50
2017-11-14T11:12:27.448Z,13.03
2017-11-14T11:14:54.954Z,14.13
2017-11-14T11:17:22.460Z,15.63
2017-11-14T11:19:49.980Z,13.93
2017-11-14T11:22:17.488Z,17.00
2017-11-14T11:24:45.009Z,14.00
2017-11-14T11:27:12.520Z,15.40
2017-11-14T11:29:40.036Z,13.87
2017-11-14T11:32:08.307Z,14.63
2017-11-14T11:34:36.591Z,14.90
2017-11-14T11:37:04.864Z,16.50
2017-11-14T11:39:33.152Z,17.57
2017-11-14T11:42:01.421Z,17.07
2017-11-14T11:44:29.715Z,19.73
2017-11-14T11:46:57.231Z,16.57
2017-11-14T11:49:24.748Z,16.27
2017-11-14T11:51:52.256Z,21.73
2017-11-14T11:54:20.550Z,17.20
2017-11-14T11:56:48.062Z,20.93
2017-11-14T11:59:15.580Z,20.83
2017-11-14T12:01:43.084Z,20.43
2017-11-14T12:04:10.605Z,16.40
2017-11-14T12:06:38.112Z,15.90
2017-11-14T12:09:05.656Z,14.50
2017-11-14T12:11:33.183Z,13.53
2017-11-14T12:14:00.684Z,14.60
2017-11-14T12:16:28.212Z,16.60
2017-11-14T12:18:55.716Z,13.40
2017-11-14T12:21:23.999Z,15.03
2017-11-14T12:23:52.274Z,15.33
2017-11-14T12:26:20.571Z,16.90
2017-11-14T12:28:48.081Z,15.93
2017-11-14T12:31:15.603Z,16.60
2017-11-14T12:33:43.111Z,12.87
2017-11-14T12:36:10.633Z,17.00
2017-11-14T12:38:38.140Z,15.97
2017-11-14T12:41:06.431Z,16.73
2017-11-14T12:43:33.936Z,14.70
2017-11-14T12:46:01.464Z,13.93
2017-11-14T12:48:28.972Z,13.90
2017-11-14T12:50:56.498Z,13.00
2017-11-14T12:53:23.999Z,14.40
2017-11-14T12:55:52.284Z,12.60
2017-11-14T12:58:20.548Z,14.00
2017-11-14T13:00:48.836Z,15.77
2017-11-14T13:03:17.111Z,15.20
2017-11-14T13:05:45.402Z,15.00
2017-11-14T13:08:12.926Z,16.80
2017-11-14T13:10:40.447Z,13.50
2017-11-14T13:13:07.956Z,13.93
2017-11-14T13:15:36.226Z,12.60
2017-11-14T13:18:04.516Z,15.07
2017-11-14T13:20:32.783Z,12.63
2017-11-14T13:23:01.072Z,14.00
2017-11-14T13:25:28.597Z,11.97
2017-11-14T13:27:56.121Z,12.40
2017-11-14T13:30:23.628Z,12.97
2017-11-14T13:32:51.971Z,14.60
2017-11-14T13:35:19.479Z,13.20
2017-11-14T13:37:47.763Z,12.37
2017-11-14T13:40:15.264Z,13.43
2017-11-14T13:42:42.785Z,12.43
2017-11-14T13:45:10.287Z,13.07
2017-11-14T13:47:37.814Z,13.63
2017-11-14T13:50:05.332Z,14.40
2017-11-14T13:52:33.620Z,12.83
2017-11-14T13:55:01.892Z,12.90
2017-11-14T13:57:30.189Z,13.20
2017-11-14T13:59:57.696Z,11.40
2017-11-14T14:02:25.260Z,12.07
2017-11-14T14:04:52.768Z,15.23
2017-11-14T14:07:20.274Z,10.40
2017-11-14T14:09:47.792Z,14.27
2017-11-14T14:12:15.311Z,13.70
2017-11-14T14:14:43.595Z,11.80
2017-11-14T14:17:11.860Z,12.37
2017-11-14T14:19:40.148Z,10.83
2017-11-14T14:22:08.424Z,15.20
2017-11-14T14:24:36.716Z,15.97
2017-11-14T14:27:04.240Z,14.97
2017-11-14T14:29:31.764Z,13.13
2017-11-14T14:31:59.268Z,12.53
2017-11-14T14:34:27.556Z,15.63
2017-11-14T14:36:55.064Z,13.63
2017-11-14T14:39:22.583Z,14.90
2017-11-14T14:41:50.091Z,14.03
2017-11-14T14:44:17.611Z,12.43
2017-11-14T14:46:45.116Z,12.37
2017-11-14T14:49:12.636Z,13.30
2017-11-14T14:51:40.151Z,13.50
2017-11-14T14:54:08.436Z,11.77
2017-11-14T14:56:35.935Z,11.60
2017-11-14T14:59:03.451Z,12.53
2017-11-14T15:01:30.957Z,13.17
2017-11-14T15:03:58.488Z,12.60
2017-11-14T15:06:25.996Z,12.37
2017-11-14T15:08:53.533Z,16.23
2017-11-14T15:11:21.036Z,13.00
2017-11-14T15:13:49.311Z,14.13
2017-11-14T15:16:16.843Z,10.50
2017-11-14T15:18:44.344Z,11.33
2017-11-14T15:21:11.859Z,12.43
2017-11-14T15:23:39.360Z,11.70
2017-11-14T15:26:06.903Z,13.13
2017-11-14T15:28:35.164Z,14.93
2017-11-14T15:31:03.455Z,14.80
2017-11-14T15:33:31.719Z,19.80
2017-11-14T15:36:00.012Z,16.07
2017-11-14T15:38:27.520Z,12.83
2017-11-14T15:40:55.048Z,12.80
2017-11-14T15:43:22.556Z,14.70
2017-11-14T15:45:50.075Z,15.43
2017-11-14T15:48:17.588Z,14.90
2017-11-14T15:50:46.090Z,16.60
2017-11-14T15:53:13.603Z,15.87
2017-11-14T15:55:41.149Z,15.90
2017-11-14T15:58:08.669Z,14.33
2017-11-14T16:00:36.179Z,15.70
2017-11-14T16:03:03.726Z,17.57
2017-11-14T16:05:31.224Z,13.40
2017-11-14T16:07:59.512Z,17.47
2017-11-14T16:10:27.020Z,16.33
2017-11-14T16:12:54.553Z,14.37
2017-11-14T16:15:22.063Z,13.50
2017-11-14T16:17:50.360Z,13.60
2017-11-14T16:20:17.864Z,12.07
2017-11-14T16:22:45.494Z,12.43
2017-11-14T16:25:12.992Z,12.33
2017-11-14T16:27:40.507Z,11.03
2017-11-14T16:30:08.014Z,13.80
2017-11-14T16:32:35.541Z,14.33
2017-11-14T16:35:03.040Z,15.07
2017-11-14T16:37:30.561Z,15.43
2017-11-14T16:39:58.060Z,16.70
2017-11-14T16:42:26.357Z,18.50
2017-11-14T16:44:53.924Z,14.07
2017-11-14T16:47:22.144Z,13.40
2017-11-14T16:49:49.648Z,12.83
2017-11-14T16:52:17.175Z,13.33
2017-11-14T16:54:44.681Z,15.33
2017-11-14T16:57:12.240Z,15.40
2017-11-14T16:59:39.743Z,11.20
2017-11-14T17:02:07.260Z,11.20
2017-11-14T17:04:34.764Z,11.53
2017-11-14T17:07:02.375Z,11.73
2017-11-14T17:09:29.883Z,12.90
2017-11-14T17:11:57.399Z,12.97
2017-11-14T17:14:24.932Z,14.10
2017-11-14T17:16:52.508Z,12.83
2017-11-14T17:19:20.008Z,18.17
2017-11-14T17:21:47.532Z,12.40
2017-11-14T17:24:15.046Z,16.37
2017-11-14T17:26:43.337Z,14.73
2017-11-14T17:29:10.847Z,15.37
2017-11-14T17:31:38.380Z,15.33
2017-11-14T17:34:05.897Z,14.00
2017-11-14T17:36:34.188Z,13.67
2017-11-14T17:39:01.688Z,15.90
2017-11-14T17:41:29.312Z,17.67
2017-11-14T17:43:56.910Z,16.27
2017-11-14T17:46:24.535Z,13.90
2017-11-14T17:48:52.961Z,16.63
2017-11-14T17:51:20.483Z,16.20
2017-11-14T17:53:48.012Z,16.50
2017-11-14T17:56:16.507Z,16.97
2017-11-14T17:58:44.064Z,16.07
2017-11-14T18:01:11.577Z,18.03
2017-11-14T18:03:39.868Z,19.10
2017-11-14T18:06:07.393Z,17.70
2017-11-14T18:08:34.912Z,17.67
2017-11-14T18:11:02.782Z,19.70
2017-11-14T18:13:30.304Z,17.47
2017-11-14T18:15:57.808Z,16.50
2017-11-14T18:18:25.356Z,16.80
2017-11-14T18:20:52.929Z,19.60
2017-11-14T18:23:20.479Z,17.60
2017-11-14T18:25:47.988Z,15.97
2017-11-14T18:28:15.504Z,19.50
2017-11-14T18:30:43.011Z,16.00
2017-11-14T18:33:11.532Z,15.80
2017-11-14T18:35:39.040Z,15.53
2017-11-14T18:38:06.564Z,18.10
2017-11-14T18:40:34.639Z,18.87
2017-11-14T18:43:02.177Z,16.47
2017-11-14T18:45:29.680Z,16.50
2017-11-14T18:47:57.195Z,19.20
2017-11-14T18:50:24.700Z,23.90
2017-11-14T18:52:52.229Z,16.80
2017-11-14T18:55:19.780Z,20.67
2017-11-14T18:57:47.281Z,18.53
2017-11-14T19:00:16.498Z,19.77
2017-11-14T19:02:44.768Z,22.17
2017-11-14T19:05:12.361Z,29.53
2017-11-14T19:07:39.864Z,46.37
2017-11-14T19:10:08.224Z,40.87
2017-11-14T19:12:35.732Z,38.20
2017-11-14T19:15:04.040Z,27.70
2017-11-14T19:17:31.547Z,34.83
2017-11-14T19:19:59.137Z,30.60
2017-11-14T19:22:27.319Z,31.60
2017-11-14T19:24:54.877Z,27.73
2017-11-14T19:27:22.380Z,29.30
2017-11-14T19:29:49.907Z,24.03
2017-11-14T19:32:17.415Z,21.23
2017-11-14T19:34:45.708Z,22.07
2017-11-14T19:37:13.981Z,14.07
2017-11-14T19:39:42.279Z,15.50
2017-11-14T19:42:09.792Z,21.53
2017-11-14T19:44:38.065Z,16.00
2017-11-14T19:47:05.589Z,14.43
2017-11-14T19:49:33.142Z,14.60
2017-11-14T19:52:00.795Z,15.80
2017-11-14T19:54:28.379Z,18.63
2017-11-14T19:56:56.016Z,13.70
2017-11-14T19:59:23.525Z,15.20
2017-11-14T20:01:51.059Z,17.70
2017-11-14T20:04:18.567Z,16.67
2017-11-14T20:06:46.848Z,18.20
2017-11-14T20:09:15.443Z,15.20
2017-11-14T20:11:43.016Z,17.13
2017-11-14T20:14:10.536Z,16.00
2017-11-14T20:16:38.850Z,13.97
2017-11-14T20:19:06.397Z,16.87
2017-11-14T20:21:33.936Z,14.13
2017-11-14T20:24:02.208Z,15.00
2017-11-14T20:26:30.503Z,15.43
2017-11-14T20:28:58.008Z,17.40
2017-11-14T20:31:25.528Z,15.90
2017-11-14T20:33:53.035Z,14.13
2017-11-14T20:36:20.554Z,18.17
2017-11-14T20:38:48.076Z,15.87
2017-11-14T20:41:15.620Z,14.73
2017-11-14T20:43:43.136Z,16.47
2017-11-14T20:46:10.655Z,18.97
2017-11-14T20:48:39.026Z,17.10
2017-11-14T20:51:07.330Z,16.00
2017-11-14T20:53:34.851Z,17.10
2017-11-14T20:56:02.364Z,15.63
2017-11-14T20:58:29.885Z,17.83
2017-11-14T21:00:59.331Z,17.00
2017-11-14T21:03:26.847Z,18.90
2017-11-14T21:05:55.120Z,15.90
2017-11-14T21:08:23.400Z,17.80
2017-11-14T21:10:50.924Z,18.10
2017-11-14T21:13:18.452Z,15.17
2017-11-14T21:15:45.969Z,19.90
2017-11-14T21:18:14.262Z,19.33
2017-11-14T21:20:41.768Z,16.90
2017-11-14T21:23:10.806Z,20.43
2017-11-14T21:25:38.308Z,15.40
2017-11-14T21:28:05.837Z,21.00
2017-11-14T21:30:33.340Z,15.03
2017-11-14T21:33:00.890Z,15.97
2017-11-14T21:35:28.400Z,16.90
2017-11-14T21:37:55.899Z,21.23
2017-11-14T21:40:23.436Z,23.23
2017-11-14T21:42:50.948Z,20.67
2017-11-14T21:45:18.475Z,20.10
2017-11-14T21:47:45.985Z,20.60
2017-11-14T21:50:14.276Z,20.03
2017-11-14T21:52:41.780Z,18.37
2017-11-14T21:55:09.300Z,19.13
2017-11-14T21:57:36.799Z,17.73
2017-11-14T22:00:04.418Z,19.20
2017-11-14T22:02:31.919Z,22.17
2017-11-14T22:04:59.536Z,16.70
2017-11-14T22:07:27.048Z,17.50
2017-11-14T22:09:55.348Z,20.97
2017-11-14T22:12:22.860Z,21.90
2017-11-14T22:14:50.381Z,22.20
2017-11-14T22:17:17.883Z,21.23
2017-11-14T22:19:45.404Z,24.20
2017-11-14T22:22:12.912Z,21.60
2017-11-14T22:24:40.436Z,20.40
2017-11-14T22:27:07.934Z,25.80
2017-11-14T22:29:36.227Z,25.33
2017-11-14T22:32:04.495Z,22.30
2017-11-14T22:34:32.783Z,21.63
2017-11-14T22:37:00.300Z,26.13
2017-11-14T22:39:27.834Z,21.10
2017-11-14T22:41:55.340Z,24.87
2017-11-14T22:44:23.632Z,23.50
2017-11-14T22:46:51.156Z,24.07
2017-11-14T22:49:18.661Z,23.40
2017-11-14T22:51:46.184Z,45.10
2017-11-14T22:54:14.864Z,41.90
2017-11-14T22:56:42.384Z,22.77
2017-11-14T22:59:10.105Z,24.23
2017-11-14T23:01:37.637Z,22.40
2017-11-14T23:04:06.668Z,21.10
2017-11-14T23:06:34.740Z,20.57
2017-11-14T23:09:02.724Z,22.80
2017-11-14T23:11:30.297Z,25.10
2017-11-14T23:13:57.805Z,24.83
2017-11-14T23:16:26.087Z,25.00
2017-11-14T23:18:54.354Z,24.97
2017-11-14T23:21:22.639Z,24.07
2017-11-14T23:23:50.912Z,23.23
2017-11-14T23:26:19.295Z,25.90
2017-11-14T23:28:47.584Z,27.10
2017-11-14T23:31:15.121Z,21.87
2017-11-14T23:33:43.392Z,27.87
2017-11-14T23:36:11.659Z,24.43
2017-11-14T23:38:39.588Z,24.83
2017-11-14T23:41:07.104Z,23.27
2017-11-14T23:43:35.396Z,21.00
2017-11-14T23:46:02.907Z,20.13
2017-11-14T23:48:31.256Z,21.83
2017-11-14T23:50:58.788Z,20.10
2017-11-14T23:53:26.584Z,23.70
2017-11-14T23:55:54.128Z,23.30
2017-11-14T23:58:21.656Z,20.53
